createdAt,value
2018-11-23T00:01:06.685Z,28.07
2018-11-23T00:03:09.769Z,27.50
2018-11-23T00:05:13.031Z,26.87
2018-11-23T00:07:16.101Z,27.47
2018-11-23T00:09:19.198Z,25.57
2018-11-23T00:11:22.333Z,28.73
2018-11-23T00:13:25.413Z,28.10
2018-11-23T00:15:28.497Z,28.57
2018-11-23T00:17:31.703Z,28.13
2018-11-23T00:19:34.842Z,28.63
2018-11-23T00:21:37.920Z,27.67
2018-11-23T00:23:40.982Z,28.87
2018-11-23T00:25:44.133Z,29.80
2018-11-23T00:27:47.341Z,27.90
2018-11-23T00:29:50.469Z,28.87
2018-11-23T00:31:53.617Z,28.93
2018-11-23T00:33:56.797Z,28.63
2018-11-23T00:35:59.945Z,27.67
2018-11-23T00:38:03.249Z,30.00
2018-11-23T00:40:08.258Z,29.90
2018-11-23T00:42:11.385Z,29.70
2018-11-23T00:44:14.578Z,31.07
2018-11-23T00:46:17.789Z,31.70
2018-11-23T00:48:20.927Z,30.80
2018-11-23T00:50:24.754Z,30.37
2018-11-23T00:52:27.929Z,30.70
2018-11-23T00:54:31.066Z,32.10
2018-11-23T00:56:34.173Z,32.63
2018-11-23T00:58:37.302Z,32.40
2018-11-23T01:00:40.433Z,31.40
2018-11-23T01:02:43.747Z,29.53
2018-11-23T01:04:46.875Z,31.50
2018-11-23T01:06:49.997Z,29.87
2018-11-23T01:08:53.174Z,32.17
2018-11-23T01:10:56.303Z,28.20
2018-11-23T01:12:59.590Z,29.87
2018-11-23T01:15:03.063Z,28.80
2018-11-23T01:17:06.403Z,27.90
2018-11-23T01:19:09.739Z,27.60
2018-11-23T01:21:12.958Z,26.47
2018-11-23T01:23:16.096Z,25.17
2018-11-23T01:25:20.341Z,26.60
2018-11-23T01:27:23.562Z,24.00
2018-11-23T01:29:26.742Z,25.83
2018-11-23T01:31:29.906Z,24.60
2018-11-23T01:33:33.112Z,25.37
2018-11-23T01:35:36.196Z,28.10
2018-11-23T01:37:39.345Z,25.87
2018-11-23T01:39:42.503Z,24.77
2018-11-23T01:41:45.647Z,24.87
2018-11-23T01:43:48.777Z,25.07
2018-11-23T01:45:51.905Z,23.50
2018-11-23T01:47:55.046Z,24.93
2018-11-23T01:49:58.175Z,25.30
2018-11-23T01:52:01.325Z,23.60
2018-11-23T01:54:04.887Z,24.90
2018-11-23T01:56:08.045Z,25.33
2018-11-23T01:58:11.177Z,26.43
2018-11-23T02:00:17.005Z,25.27
2018-11-23T02:02:20.191Z,24.17
2018-11-23T02:04:23.330Z,23.30
2018-11-23T02:06:26.443Z,23.90
2018-11-23T02:08:29.577Z,24.60
2018-11-23T02:10:32.961Z,25.33
2018-11-23T02:12:36.276Z,24.90
2018-11-23T02:14:39.564Z,25.00
2018-11-23T02:16:42.777Z,25.20
2018-11-23T02:18:46.342Z,24.10
2018-11-23T02:20:49.746Z,24.57
2018-11-23T02:22:53.293Z,26.77
2018-11-23T02:24:58.258Z,27.20
2018-11-23T02:27:01.836Z,25.30
2018-11-23T02:29:06.177Z,27.00
2018-11-23T02:31:11.589Z,25.97
2018-11-23T02:33:18.974Z,26.80
2018-11-23T02:35:24.365Z,24.50
2018-11-23T02:38:35.201Z,26.20
2018-11-23T02:40:39.221Z,24.40
2018-11-23T02:42:44.063Z,26.50
2018-11-23T02:44:50.201Z,27.03
2018-11-23T02:46:54.501Z,27.10
2018-11-23T02:48:59.931Z,28.23
2018-11-23T02:51:03.360Z,27.93
2018-11-23T02:53:08.841Z,29.27
2018-11-23T02:55:13.157Z,29.03
2018-11-23T02:57:16.478Z,28.57
2018-11-23T02:59:23.947Z,29.97
2018-11-23T03:01:26.222Z,29.50
2018-11-23T03:03:30.756Z,29.83
2018-11-23T03:05:34.667Z,32.80
2018-11-23T03:07:38.429Z,30.67
2018-11-23T03:09:41.713Z,31.17
2018-11-23T03:11:45.970Z,31.73
2018-11-23T03:13:51.971Z,32.83
2018-11-23T03:15:55.913Z,33.43
2018-11-23T03:18:01.889Z,32.57
2018-11-23T03:20:10.139Z,32.67
2018-11-23T03:22:14.914Z,30.80
2018-11-23T03:24:19.903Z,34.10
2018-11-23T03:26:25.334Z,34.20
2018-11-23T03:28:31.588Z,32.57
2018-11-23T03:30:36.295Z,36.40
2018-11-23T03:32:41.426Z,35.80
2018-11-23T03:34:48.286Z,34.20
2018-11-23T03:36:52.363Z,37.23
2018-11-23T03:38:58.081Z,34.30
2018-11-23T03:41:02.835Z,37.27
2018-11-23T03:43:08.701Z,36.87
2018-11-23T03:45:14.522Z,34.23
2018-11-23T03:47:26.550Z,34.80
2018-11-23T03:49:29.902Z,36.87
2018-11-23T03:51:34.586Z,33.80
2018-11-23T03:53:37.736Z,34.17
2018-11-23T03:55:40.847Z,35.07
2018-11-23T03:57:43.940Z,38.43
2018-11-23T03:59:47.094Z,38.70
2018-11-23T04:01:50.230Z,37.17
2018-11-23T04:03:53.301Z,36.97
2018-11-23T04:05:56.421Z,38.77
2018-11-23T04:07:59.510Z,37.63
2018-11-23T04:10:02.629Z,37.70
2018-11-23T04:12:05.763Z,35.70
2018-11-23T04:14:08.878Z,39.87
2018-11-23T04:16:13.093Z,38.10
2018-11-23T04:18:16.214Z,36.40
2018-11-23T04:20:19.336Z,34.47
2018-11-23T04:22:22.498Z,35.40
2018-11-23T04:24:25.623Z,35.80
2018-11-23T04:26:28.724Z,38.40
2018-11-23T04:28:31.814Z,37.77
2018-11-23T04:30:34.884Z,35.37
2018-11-23T04:32:38.009Z,38.10
2018-11-23T04:34:41.104Z,39.40
2018-11-23T04:36:44.215Z,38.10
2018-11-23T04:38:47.359Z,37.67
2018-11-23T04:40:50.409Z,37.17
2018-11-23T04:42:53.498Z,37.93
2018-11-23T04:44:56.585Z,38.03
2018-11-23T04:46:59.681Z,35.30
2018-11-23T04:49:02.786Z,34.30
2018-11-23T04:51:05.914Z,35.93
2018-11-23T04:53:08.941Z,36.47
2018-11-23T04:55:12.278Z,34.63
2018-11-23T04:57:15.397Z,35.50
2018-11-23T04:59:18.484Z,36.77
2018-11-23T05:01:21.712Z,35.13
2018-11-23T05:03:24.856Z,36.80
2018-11-23T05:05:27.968Z,37.37
2018-11-23T05:07:31.070Z,36.57
2018-11-23T05:09:34.164Z,35.07
2018-11-23T05:11:37.521Z,36.07
2018-11-23T05:13:42.466Z,35.43
2018-11-23T05:15:45.602Z,37.20
2018-11-23T05:17:48.746Z,37.20
2018-11-23T05:19:51.848Z,35.57
2018-11-23T05:21:54.931Z,36.00
2018-11-23T05:23:58.013Z,36.50
2018-11-23T05:26:04.485Z,37.57
2018-11-23T05:28:07.585Z,39.17
2018-11-23T05:30:14.989Z,39.40
2018-11-23T05:32:18.143Z,42.27
2018-11-23T05:34:21.558Z,41.10
2018-11-23T05:36:24.673Z,37.90
2018-11-23T05:38:29.909Z,39.80
2018-11-23T05:40:33.001Z,39.77
2018-11-23T05:42:36.328Z,41.33
2018-11-23T05:44:39.528Z,43.50
2018-11-23T05:46:42.720Z,43.27
2018-11-23T05:48:45.817Z,40.73
2018-11-23T05:50:48.901Z,41.37
2018-11-23T05:52:52.157Z,41.37
2018-11-23T05:54:55.213Z,40.20
2018-11-23T05:56:58.289Z,41.13
2018-11-23T05:59:01.395Z,42.90
2018-11-23T06:01:04.605Z,41.53
2018-11-23T06:03:07.682Z,39.20
2018-11-23T06:05:10.846Z,43.60
2018-11-23T06:07:13.999Z,41.03
2018-11-23T06:09:17.083Z,40.67
2018-11-23T06:11:21.236Z,41.50
2018-11-23T06:13:24.325Z,41.27
2018-11-23T06:15:27.406Z,39.57
2018-11-23T06:17:30.501Z,37.90
2018-11-23T06:19:33.581Z,38.30
2018-11-23T06:21:36.669Z,40.30
2018-11-23T06:23:39.757Z,40.70
2018-11-23T06:25:45.073Z,42.13
2018-11-23T06:27:48.305Z,39.27
2018-11-23T06:29:51.369Z,42.40
2018-11-23T06:31:54.434Z,47.07
2018-11-23T06:33:57.570Z,41.20
2018-11-23T06:36:00.666Z,42.27
2018-11-23T06:38:03.754Z,43.60
2018-11-23T06:40:08.163Z,44.20
2018-11-23T06:42:11.269Z,42.57
2018-11-23T06:44:14.430Z,44.87
2018-11-23T06:46:17.525Z,40.37
2018-11-23T06:48:20.617Z,44.27
2018-11-23T06:50:23.722Z,43.90
2018-11-23T06:52:26.880Z,43.70
2018-11-23T06:54:30.589Z,46.87
2018-11-23T06:56:57.458Z,45.40
2018-11-23T06:59:19.588Z,44.47
2018-11-23T07:03:59.556Z,44.93
2018-11-23T07:09:21.518Z,42.33
2018-11-23T07:11:42.310Z,44.37
2018-11-23T07:14:10.490Z,46.37
2018-11-23T07:18:53.902Z,47.00
2018-11-23T07:21:42.393Z,46.00
2018-11-23T07:25:47.050Z,46.53
2018-11-23T07:28:23.232Z,45.83
2018-11-23T07:30:44.839Z,47.47
2018-11-23T07:32:47.929Z,47.90
2018-11-23T07:34:51.037Z,49.70
2018-11-23T07:36:54.123Z,45.93
2018-11-23T07:38:57.210Z,49.37
2018-11-23T07:41:11.624Z,52.17
2018-11-23T07:43:14.756Z,53.30
2018-11-23T07:45:18.053Z,49.70
2018-11-23T07:47:21.426Z,51.17
2018-11-23T07:49:24.794Z,50.97
2018-11-23T07:51:28.202Z,47.27
2018-11-23T07:53:31.669Z,50.77
2018-11-23T07:55:35.072Z,50.50
2018-11-23T07:57:38.518Z,49.67
2018-11-23T07:59:41.946Z,51.20
2018-11-23T08:01:45.305Z,47.37
2018-11-23T08:03:48.769Z,47.53
2018-11-23T08:05:52.142Z,47.87
2018-11-23T08:07:57.867Z,49.97
2018-11-23T08:10:02.249Z,47.33
2018-11-23T08:12:06.053Z,50.40
2018-11-23T08:14:10.071Z,46.47
2018-11-23T08:16:13.471Z,51.03
2018-11-23T08:18:16.814Z,51.60
2018-11-23T08:20:21.318Z,50.00
2018-11-23T08:22:24.754Z,47.70
2018-11-23T08:24:28.220Z,51.53
2018-11-23T08:26:31.661Z,50.03
2018-11-23T08:28:35.186Z,52.47
2018-11-23T08:30:41.937Z,56.50
2018-11-23T08:32:46.364Z,58.87
2018-11-23T08:34:50.742Z,51.90
2018-11-23T08:36:54.191Z,50.40
2018-11-23T08:38:57.480Z,50.90
2018-11-23T08:41:00.917Z,38.33
2018-11-23T08:43:04.357Z,37.03
2018-11-23T08:45:09.825Z,37.37
2018-11-23T08:47:13.149Z,38.40
2018-11-23T08:49:16.519Z,38.23
2018-11-23T08:51:19.948Z,39.70
2018-11-23T08:53:30.422Z,39.10
2018-11-23T08:55:33.861Z,39.43
2018-11-23T08:57:37.058Z,40.47
2018-11-23T08:59:40.316Z,41.17
2018-11-23T09:01:43.529Z,40.20
2018-11-23T09:03:46.760Z,44.70
2018-11-23T09:05:50.017Z,42.73
2018-11-23T09:07:54.472Z,40.60
2018-11-23T09:09:57.729Z,41.27
2018-11-23T09:12:01.248Z,39.47
2018-11-23T09:14:04.993Z,40.70
2018-11-23T09:16:08.617Z,41.00
2018-11-23T09:18:11.898Z,40.97
2018-11-23T09:20:16.030Z,43.17
2018-11-23T09:22:23.538Z,42.50
2018-11-23T09:24:22.530Z,40.27
2018-11-23T09:26:26.370Z,40.83
2018-11-23T09:28:29.753Z,43.53
2018-11-23T09:30:33.116Z,41.83
2018-11-23T09:32:37.009Z,43.83
2018-11-23T09:34:40.827Z,42.90
2018-11-23T09:36:43.493Z,40.40
2018-11-23T09:38:46.783Z,40.80
2018-11-23T09:40:49.992Z,43.27
2018-11-23T09:42:53.589Z,38.77
2018-11-23T09:44:56.811Z,42.80
2018-11-23T09:47:00.095Z,43.03
2018-11-23T09:49:03.365Z,43.90
2018-11-23T09:51:06.612Z,40.07
2018-11-23T09:53:09.852Z,39.67
2018-11-23T09:55:13.093Z,41.07
2018-11-23T09:57:16.374Z,39.50
2018-11-23T09:59:19.690Z,39.60
2018-11-23T10:01:24.027Z,39.37
2018-11-23T10:05:45.863Z,38.77
2018-11-23T10:07:50.582Z,37.83
2018-11-23T10:09:54.017Z,38.27
2018-11-23T10:12:08.122Z,36.80
2018-11-23T10:14:30.705Z,36.43
2018-11-23T10:16:35.139Z,36.37
2018-11-23T10:18:39.635Z,35.80
2018-11-23T10:20:46.106Z,35.00
2018-11-23T10:22:50.345Z,35.77
2018-11-23T10:24:55.546Z,34.80
2018-11-23T10:26:58.843Z,33.40
2018-11-23T10:29:02.411Z,34.23
2018-11-23T10:31:09.848Z,33.20
2018-11-23T10:33:14.571Z,34.53
2018-11-23T10:35:19.363Z,35.47
2018-11-23T10:37:24.697Z,33.30
2018-11-23T10:39:31.419Z,32.00
2018-11-23T10:41:39.364Z,31.20
2018-11-23T10:43:42.837Z,31.90
2018-11-23T10:45:48.188Z,31.13
2018-11-23T10:47:52.459Z,30.50
2018-11-23T10:49:58.603Z,30.90
2018-11-23T10:52:02.040Z,31.40
2018-11-23T10:54:09.345Z,29.30
2018-11-23T10:56:14.270Z,31.27
2018-11-23T10:58:23.191Z,31.60
2018-11-23T11:00:31.985Z,31.33
2018-11-23T11:02:44.005Z,30.50
2018-11-23T11:04:55.096Z,28.70
2018-11-23T11:07:04.367Z,30.30
2018-11-23T11:09:51.960Z,30.93
2018-11-23T11:11:56.984Z,30.47
2018-11-23T11:16:27.543Z,28.87
2018-11-23T11:18:35.217Z,30.90
2018-11-23T11:20:40.345Z,29.90
2018-11-23T11:24:00.269Z,29.00
2018-11-23T11:29:12.721Z,27.83
2018-11-23T11:31:35.290Z,27.40
2018-11-23T11:33:38.603Z,28.10
2018-11-23T11:39:02.126Z,28.73
2018-11-23T11:41:12.806Z,28.80
2018-11-23T11:43:16.197Z,29.47
2018-11-23T11:45:28.590Z,27.17
2018-11-23T11:47:31.867Z,30.17
2018-11-23T11:49:35.215Z,27.57
2018-11-23T11:52:18.692Z,28.83
2018-11-23T11:54:24.719Z,26.60
2018-11-23T11:56:28.353Z,29.00
2018-11-23T11:58:34.442Z,31.10
2018-11-23T12:00:47.033Z,27.30
2018-11-23T12:02:51.331Z,28.57
2018-11-23T12:07:34.858Z,29.57
2018-11-23T12:09:43.153Z,28.40
2018-11-23T12:11:48.083Z,26.90
2018-11-23T12:13:55.326Z,26.47
2018-11-23T12:15:58.909Z,27.00
2018-11-23T12:18:14.914Z,27.50
2018-11-23T12:20:23.019Z,27.03
2018-11-23T12:22:26.375Z,25.87
2018-11-23T12:24:30.061Z,24.63
2018-11-23T12:26:38.115Z,26.40
2018-11-23T12:28:41.895Z,24.73
2018-11-23T12:30:45.127Z,26.40
2018-11-23T12:35:37.151Z,26.20
2018-11-23T12:37:55.476Z,26.70
2018-11-23T12:39:58.932Z,26.63
2018-11-23T12:42:27.345Z,24.50
2018-11-23T12:44:30.661Z,27.10
2018-11-23T12:46:42.530Z,23.63
2018-11-23T12:48:46.566Z,25.23
2018-11-23T12:50:51.788Z,25.07
2018-11-23T12:52:56.248Z,24.20
2018-11-23T12:54:59.538Z,25.20
2018-11-23T12:57:02.861Z,25.50
2018-11-23T12:59:06.131Z,24.27
2018-11-23T13:01:09.739Z,26.10
2018-11-23T13:03:13.039Z,26.10
2018-11-23T13:05:16.498Z,26.20
2018-11-23T13:07:19.849Z,27.43
2018-11-23T13:09:23.184Z,26.40
2018-11-23T13:11:26.490Z,26.80
2018-11-23T13:13:29.775Z,26.80
2018-11-23T13:15:33.056Z,29.17
2018-11-23T13:17:36.399Z,25.50
2018-11-23T13:19:39.525Z,25.10
2018-11-23T13:21:42.609Z,23.73
2018-11-23T13:23:46.713Z,26.40
2018-11-23T13:25:49.824Z,25.63
2018-11-23T13:27:52.953Z,24.90
2018-11-23T13:29:56.076Z,26.63
2018-11-23T13:32:00.214Z,27.83
2018-11-23T13:34:02.723Z,25.47
2018-11-23T13:36:09.424Z,24.43
2018-11-23T13:38:14.111Z,25.90
2018-11-23T13:40:18.731Z,25.60
2018-11-23T13:42:21.965Z,27.30
2018-11-23T13:44:25.232Z,24.33
2018-11-23T13:46:28.501Z,25.57
2018-11-23T13:48:31.814Z,27.67
2018-11-23T13:50:35.113Z,26.80
2018-11-23T13:52:38.378Z,24.93
2018-11-23T13:54:41.609Z,27.57
2018-11-23T13:56:44.968Z,26.73
2018-11-23T13:58:48.226Z,28.23
2018-11-23T14:00:51.488Z,29.47
2018-11-23T14:02:54.729Z,26.57
2018-11-23T14:04:57.845Z,28.63
2018-11-23T14:07:00.950Z,27.97
2018-11-23T14:09:07.695Z,26.50
2018-11-23T14:11:13.825Z,26.57
2018-11-23T14:13:17.066Z,26.90
2018-11-23T14:15:27.254Z,28.70
2018-11-23T14:17:30.816Z,27.23
2018-11-23T14:19:33.962Z,27.80
2018-11-23T14:21:37.093Z,30.00
2018-11-23T14:23:40.191Z,29.13
2018-11-23T14:25:43.287Z,29.60
2018-11-23T14:27:46.840Z,28.80
2018-11-23T14:29:50.021Z,29.13
2018-11-23T14:31:53.214Z,29.03
2018-11-23T14:33:56.325Z,29.60
2018-11-23T14:36:02.646Z,27.10
2018-11-23T14:38:21.341Z,29.80
2018-11-23T14:44:25.270Z,27.40
2018-11-23T14:46:38.673Z,27.90
2018-11-23T14:48:51.206Z,33.33
2018-11-23T14:50:55.504Z,29.00
2018-11-23T14:57:59.485Z,29.47
2018-11-23T15:00:10.712Z,32.47
2018-11-23T15:02:44.606Z,30.00
2018-11-23T15:05:01.141Z,28.80
2018-11-23T15:07:04.451Z,29.73
2018-11-23T15:09:33.623Z,30.97
2018-11-23T15:11:44.946Z,32.50
2018-11-23T15:13:48.790Z,31.33
2018-11-23T15:15:53.626Z,31.10
2018-11-23T15:17:57.682Z,33.23
2018-11-23T15:20:09.748Z,33.20
2018-11-23T15:22:19.308Z,32.40
2018-11-23T15:24:22.522Z,32.47
2018-11-23T15:26:28.678Z,31.23
2018-11-23T15:28:32.066Z,32.47
2018-11-23T15:30:36.872Z,35.13
2018-11-23T15:32:47.197Z,32.33
2018-11-23T15:34:52.264Z,31.87
2018-11-23T15:36:55.795Z,35.10
2018-11-23T15:38:59.150Z,33.20
2018-11-23T15:41:03.069Z,34.07
2018-11-23T15:43:19.085Z,35.53
2018-11-23T15:45:25.619Z,32.83
2018-11-23T15:49:53.634Z,36.43
2018-11-23T15:52:02.048Z,34.00
2018-11-23T15:54:05.874Z,33.07
2018-11-23T15:56:09.019Z,34.03
2018-11-23T15:58:13.441Z,34.33
2018-11-23T16:00:21.986Z,36.50
2018-11-23T16:02:26.116Z,35.67
2018-11-23T16:04:29.298Z,35.07
2018-11-23T16:06:32.563Z,34.17
2018-11-23T16:08:35.773Z,33.80
2018-11-23T16:10:42.074Z,37.23
2018-11-23T16:12:46.958Z,38.40
2018-11-23T16:14:51.466Z,40.83
2018-11-23T16:16:54.940Z,57.07
2018-11-23T16:18:58.179Z,37.27
2018-11-23T16:21:01.358Z,39.67
2018-11-23T16:23:10.996Z,37.30
2018-11-23T16:25:14.355Z,36.07
2018-11-23T16:27:17.645Z,36.87
2018-11-23T16:29:20.945Z,35.80
2018-11-23T16:31:24.594Z,36.73
2018-11-23T16:33:29.295Z,37.17
2018-11-23T16:35:35.065Z,38.20
2018-11-23T16:37:38.308Z,39.60
2018-11-23T16:39:42.598Z,37.23
2018-11-23T16:41:50.213Z,37.67
2018-11-23T16:43:56.536Z,39.33
2018-11-23T16:46:05.641Z,39.90
2018-11-23T16:48:09.962Z,39.23
2018-11-23T16:53:01.588Z,39.10
2018-11-23T16:55:39.126Z,41.97
2018-11-23T16:57:44.770Z,38.03
2018-11-23T17:00:10.202Z,39.80
2018-11-23T17:02:13.435Z,41.83
2018-11-23T17:04:16.698Z,42.37
2018-11-23T17:06:19.809Z,41.90
2018-11-23T17:08:22.926Z,41.73
2018-11-23T17:10:27.853Z,41.47
2018-11-23T17:12:30.989Z,40.20
2018-11-23T17:14:34.469Z,40.43
2018-11-23T17:16:37.602Z,40.60
2018-11-23T17:18:40.709Z,40.87
2018-11-23T17:20:43.829Z,41.73
2018-11-23T17:22:48.126Z,40.20
2018-11-23T17:24:51.278Z,40.80
2018-11-23T17:26:54.413Z,39.90
2018-11-23T17:28:57.521Z,41.73
2018-11-23T17:31:00.641Z,40.10
2018-11-23T17:33:03.922Z,42.63
2018-11-23T17:35:07.473Z,41.27
2018-11-23T17:37:10.617Z,39.77
2018-11-23T17:39:13.822Z,39.80
2018-11-23T17:41:16.953Z,84.63
2018-11-23T17:43:20.058Z,61.47
2018-11-23T17:45:24.934Z,42.60
2018-11-23T17:47:28.421Z,43.70
2018-11-23T17:49:31.528Z,44.10
2018-11-23T17:51:38.331Z,45.40
2018-11-23T17:53:41.796Z,39.47
2018-11-23T17:55:44.910Z,42.20
2018-11-23T17:57:48.276Z,49.27
2018-11-23T17:59:51.374Z,44.00
2018-11-23T18:01:54.498Z,56.97
2018-11-23T18:03:57.595Z,45.67
2018-11-23T18:06:00.689Z,46.87
2018-11-23T18:08:04.470Z,45.20
2018-11-23T18:10:09.318Z,47.30
2018-11-23T18:12:12.429Z,43.30
2018-11-23T18:14:15.529Z,45.97
2018-11-23T18:16:18.624Z,41.03
2018-11-23T18:18:21.752Z,78.63
2018-11-23T18:20:25.726Z,55.87
2018-11-23T18:22:28.834Z,111.33
2018-11-23T18:24:31.937Z,53.77
2018-11-23T18:26:35.069Z,57.80
2018-11-23T18:28:38.161Z,49.63
2018-11-23T18:30:41.269Z,50.93
2018-11-23T18:32:44.365Z,48.40
2018-11-23T18:34:47.449Z,49.57
2018-11-23T18:36:50.590Z,47.60
2018-11-23T18:57:24.029Z,41.13
2018-11-23T18:59:40.111Z,47.37
2018-11-23T19:14:47.359Z,38.83
2018-11-23T19:16:59.126Z,41.90
2018-11-23T19:19:16.970Z,47.30
2018-11-23T19:21:31.478Z,42.27
2018-11-23T19:23:49.234Z,48.37
2018-11-23T19:26:08.187Z,51.40
2018-11-23T19:28:12.123Z,51.27
2018-11-23T19:30:37.966Z,51.90
2018-11-23T19:32:45.661Z,51.60
2018-11-23T19:35:11.661Z,49.60
2018-11-23T19:37:25.269Z,50.60
2018-11-23T19:39:31.728Z,46.30
2018-11-23T19:41:44.458Z,51.97
2018-11-23T19:43:55.582Z,52.47
2018-11-23T19:46:11.891Z,48.20
2018-11-23T19:48:35.539Z,49.90
2018-11-23T19:53:49.265Z,46.80
2018-11-23T19:56:06.662Z,45.97
2018-11-23T19:58:20.914Z,46.60
2018-11-23T20:00:27.467Z,47.50
2018-11-23T20:02:42.726Z,46.77
2018-11-23T20:04:51.016Z,46.80
2018-11-23T20:09:47.288Z,44.80
2018-11-23T20:11:59.819Z,46.07
2018-11-23T20:14:18.711Z,46.57
2018-11-23T20:16:30.988Z,48.50
2018-11-23T20:19:18.329Z,49.07
2018-11-23T20:21:42.349Z,48.17
2018-11-23T20:24:15.211Z,47.53
2018-11-23T20:26:38.327Z,48.40
2018-11-23T20:37:49.806Z,48.97
2018-11-23T20:40:19.061Z,44.80
2018-11-23T20:42:46.400Z,49.67
2018-11-23T20:45:12.276Z,49.43
2018-11-23T20:50:42.766Z,48.07
2018-11-23T20:53:04.194Z,52.10
2018-11-23T20:55:30.598Z,49.60
2018-11-23T20:58:05.719Z,51.47
2018-11-23T21:00:32.900Z,45.80
2018-11-23T21:05:02.306Z,46.60
2018-11-23T21:07:26.505Z,47.70
2018-11-23T21:09:50.182Z,48.53
2018-11-23T21:11:57.266Z,45.70
2018-11-23T21:14:08.766Z,46.97
2018-11-23T21:16:20.049Z,54.10
2018-11-23T21:18:31.397Z,48.93
2018-11-23T21:20:47.181Z,50.10
2018-11-23T21:23:02.470Z,45.67
2018-11-23T21:25:21.343Z,46.97
2018-11-23T21:27:37.428Z,49.07
2018-11-23T21:30:00.636Z,52.87
2018-11-23T21:32:09.951Z,47.50
2018-11-23T21:34:17.064Z,54.07
2018-11-23T21:36:27.072Z,55.07
2018-11-23T21:38:45.741Z,52.20
2018-11-23T21:40:54.690Z,55.57
2018-11-23T21:43:04.845Z,51.67
2018-11-23T21:45:16.834Z,57.40
2018-11-23T21:47:31.343Z,52.20
2018-11-23T21:49:44.980Z,52.53
2018-11-23T21:52:25.936Z,52.20
2018-11-23T21:54:36.183Z,48.50
2018-11-23T21:56:48.874Z,51.80
2018-11-23T22:00:03.800Z,49.83
2018-11-23T22:02:22.454Z,48.30
2018-11-23T22:04:33.646Z,49.40
2018-11-23T22:06:49.883Z,51.47
2018-11-23T22:09:16.980Z,49.90
2018-11-23T22:11:26.203Z,49.73
2018-11-23T22:13:33.066Z,50.27
2018-11-23T22:15:40.316Z,53.27
2018-11-23T22:17:47.515Z,54.03
2018-11-23T22:19:59.327Z,53.77
2018-11-23T22:22:07.422Z,49.23
2018-11-23T22:24:13.389Z,50.77
2018-11-23T22:26:21.399Z,51.57
2018-11-23T22:28:26.200Z,52.10
2018-11-23T22:30:31.623Z,55.17
2018-11-23T22:32:35.853Z,50.30
2018-11-23T22:34:39.818Z,52.63
2018-11-23T22:36:44.617Z,56.47
2018-11-23T22:38:48.388Z,56.47
2018-11-23T22:40:52.509Z,59.00
2018-11-23T22:42:59.686Z,52.87
2018-11-23T22:45:03.281Z,55.40
2018-11-23T22:47:06.599Z,56.20
2018-11-23T22:49:09.957Z,58.07
2018-11-23T22:51:13.289Z,61.00
2018-11-23T22:53:16.657Z,58.53
2018-11-23T22:55:20.157Z,57.47
2018-11-23T22:57:23.480Z,57.40
2018-11-23T22:59:26.865Z,55.67
2018-11-23T23:01:30.206Z,61.37
2018-11-23T23:03:33.528Z,59.43
2018-11-23T23:05:36.880Z,55.27
2018-11-23T23:07:40.194Z,59.90
2018-11-23T23:09:43.558Z,58.00
2018-11-23T23:11:48.729Z,57.47
2018-11-23T23:13:52.056Z,57.60
2018-11-23T23:15:55.460Z,57.37
2018-11-23T23:17:58.843Z,55.70
2018-11-23T23:20:02.158Z,52.60
2018-11-23T23:22:05.484Z,54.60
2018-11-23T23:24:11.933Z,54.00
2018-11-23T23:26:12.131Z,55.67
2018-11-23T23:28:15.531Z,57.23
2018-11-23T23:30:19.911Z,55.57
2018-11-23T23:32:23.286Z,57.47
2018-11-23T23:34:26.748Z,57.07
2018-11-23T23:36:30.040Z,58.27
2018-11-23T23:38:33.387Z,56.57
2018-11-23T23:40:37.739Z,56.57
2018-11-23T23:42:41.083Z,59.77
2018-11-23T23:44:44.470Z,56.37
2018-11-23T23:46:47.811Z,60.73
2018-11-23T23:48:54.485Z,56.50
2018-11-23T23:50:58.452Z,57.10
2018-11-23T23:53:02.711Z,57.40
2018-11-23T23:55:07.239Z,58.40
2018-11-23T23:57:10.632Z,59.53
2018-11-23T23:59:13.995Z,56.00
